createdAt,value
2019-05-09T00:01:07.504Z,0.70
2019-05-09T00:03:34.721Z,0.90
2019-05-09T00:06:04.443Z,0.70
2019-05-09T00:08:30.825Z,0.80
2019-05-09T00:10:58.051Z,0.70
2019-05-09T00:13:25.303Z,0.67
2019-05-09T00:15:54.143Z,0.93
2019-05-09T00:18:23.204Z,0.80
2019-05-09T00:20:50.162Z,0.90
2019-05-09T00:23:17.358Z,0.97
2019-05-09T00:25:44.422Z,0.83
2019-05-09T00:28:13.551Z,0.70
2019-05-09T00:30:40.368Z,0.73
2019-05-09T00:33:07.778Z,0.60
2019-05-09T00:35:44.159Z,1.00
2019-05-09T00:40:55.011Z,0.80
2019-05-09T00:43:13.223Z,0.53
2019-05-09T00:45:43.883Z,0.60
2019-05-09T00:48:11.124Z,0.73
2019-05-09T00:50:38.354Z,0.60
2019-05-09T00:53:05.483Z,0.63
2019-05-09T00:55:33.241Z,0.60
2019-05-09T00:58:00.576Z,0.70
2019-05-09T01:00:27.716Z,0.80
2019-05-09T01:02:55.011Z,0.70
2019-05-09T01:05:23.941Z,0.80
2019-05-09T01:07:53.625Z,0.87
2019-05-09T01:10:20.009Z,0.60
2019-05-09T01:12:47.115Z,0.60
2019-05-09T01:15:14.205Z,0.73
2019-05-09T01:17:41.306Z,0.87
2019-05-09T01:20:08.371Z,0.80
2019-05-09T01:22:35.494Z,0.60
2019-05-09T01:25:04.206Z,0.60
2019-05-09T01:27:33.807Z,0.60
2019-05-09T01:30:00.383Z,0.63
2019-05-09T01:32:27.478Z,0.70
2019-05-09T01:34:54.817Z,0.83
2019-05-09T01:37:23.753Z,0.60
2019-05-09T01:39:50.736Z,0.60
2019-05-09T01:42:17.859Z,0.60
2019-05-09T01:44:44.948Z,0.80
2019-05-09T01:47:14.027Z,0.53
2019-05-09T01:49:43.030Z,0.67
2019-05-09T01:52:09.789Z,0.70
2019-05-09T01:54:38.564Z,0.60
2019-05-09T01:57:05.712Z,0.57
2019-05-09T01:59:33.871Z,0.50
2019-05-09T02:02:07.947Z,0.70
2019-05-09T02:04:30.332Z,0.70
2019-05-09T02:06:57.452Z,0.50
2019-05-09T02:09:24.597Z,0.57
2019-05-09T02:11:54.329Z,0.50
2019-05-09T02:14:20.547Z,0.80
2019-05-09T02:16:48.926Z,0.70
2019-05-09T02:19:16.326Z,0.70
2019-05-09T02:21:43.805Z,0.50
2019-05-09T02:24:11.207Z,0.70
2019-05-09T02:26:38.500Z,0.60
2019-05-09T02:29:05.710Z,0.53
2019-05-09T02:31:35.421Z,0.77
2019-05-09T02:34:04.624Z,0.70
2019-05-09T02:36:32.207Z,0.50
2019-05-09T02:38:59.378Z,0.50
2019-05-09T02:41:28.665Z,0.60
2019-05-09T02:43:58.364Z,0.70
2019-05-09T02:49:15.547Z,0.50
2019-05-09T02:51:42.783Z,0.80
2019-05-09T02:54:10.220Z,0.50
2019-05-09T02:56:38.541Z,0.60
2019-05-09T02:59:09.298Z,0.60
2019-05-09T03:01:35.058Z,0.50
2019-05-09T03:04:02.218Z,0.60
2019-05-09T03:06:29.423Z,0.73
2019-05-09T03:08:59.101Z,0.60
2019-05-09T03:11:28.696Z,0.60
2019-05-09T03:13:54.152Z,0.60
2019-05-09T03:16:21.314Z,0.67
2019-05-09T03:18:49.379Z,0.60
2019-05-09T03:21:19.218Z,0.70
2019-05-09T03:23:48.712Z,0.70
2019-05-09T03:26:14.665Z,0.80
2019-05-09T03:28:41.788Z,0.70
2019-05-09T03:31:09.705Z,0.70
2019-05-09T03:33:40.521Z,0.90
2019-05-09T03:36:07.816Z,0.70
2019-05-09T03:38:34.707Z,0.53
2019-05-09T03:41:01.859Z,0.60
2019-05-09T03:43:29.024Z,0.60
2019-05-09T03:45:58.390Z,0.60
2019-05-09T03:48:33.774Z,0.60
2019-05-09T03:51:00.863Z,0.60
2019-05-09T03:53:28.005Z,0.70
2019-05-09T03:55:57.396Z,0.80
2019-05-09T03:58:23.879Z,0.73
2019-05-09T04:00:51.123Z,0.80
2019-05-09T04:03:20.348Z,0.60
2019-05-09T04:05:58.398Z,0.60
2019-05-09T04:08:18.075Z,0.57
2019-05-09T04:10:44.631Z,0.70
2019-05-09T04:13:11.926Z,0.70
2019-05-09T04:15:39.084Z,0.70
2019-05-09T04:18:08.113Z,0.60
2019-05-09T04:20:35.069Z,0.67
2019-05-09T04:23:02.346Z,0.80
2019-05-09T04:25:29.471Z,0.80
2019-05-09T04:28:07.345Z,0.60
2019-05-09T04:30:34.201Z,0.70
2019-05-09T04:33:01.303Z,0.67
2019-05-09T04:35:28.429Z,0.50
2019-05-09T04:37:55.547Z,0.70
2019-05-09T04:40:22.745Z,1.10
2019-05-09T04:42:49.835Z,0.60
2019-05-09T04:45:17.725Z,1.33
2019-05-09T04:47:47.080Z,1.07
2019-05-09T04:50:15.421Z,0.77
2019-05-09T04:52:42.884Z,0.70
2019-05-09T04:55:10.073Z,0.63
2019-05-09T04:57:52.037Z,0.80
2019-05-09T05:00:12.035Z,0.60
2019-05-09T05:02:39.198Z,1.00
2019-05-09T05:05:07.757Z,0.60
2019-05-09T05:07:37.479Z,0.80
2019-05-09T05:10:04.057Z,0.90
2019-05-09T05:12:31.187Z,0.90
2019-05-09T05:14:58.257Z,1.03
2019-05-09T05:17:25.319Z,0.80
2019-05-09T05:19:52.397Z,1.10
2019-05-09T05:22:20.527Z,0.70
2019-05-09T05:24:48.727Z,0.80
2019-05-09T05:27:18.638Z,0.70
2019-05-09T05:29:44.838Z,2.87
2019-05-09T05:32:12.264Z,0.80
2019-05-09T05:34:39.337Z,0.80
2019-05-09T05:37:07.587Z,0.90
2019-05-09T05:39:34.785Z,1.13
2019-05-09T05:42:01.872Z,0.80
2019-05-09T05:44:28.974Z,1.00
2019-05-09T05:46:58.314Z,1.10
2019-05-09T05:49:24.851Z,1.17
2019-05-09T05:51:51.916Z,1.13
2019-05-09T05:54:18.996Z,1.20
2019-05-09T05:56:47.475Z,1.00
2019-05-09T05:59:14.751Z,0.90
2019-05-09T06:01:41.862Z,1.20
2019-05-09T06:04:09.036Z,1.20
2019-05-09T06:06:37.516Z,1.10
2019-05-09T06:09:04.707Z,1.30
2019-05-09T06:11:34.530Z,1.00
2019-05-09T06:14:08.740Z,1.33
2019-05-09T06:16:30.350Z,1.20
2019-05-09T06:18:58.620Z,1.03
2019-05-09T06:21:28.103Z,0.90
2019-05-09T06:23:54.694Z,1.07
2019-05-09T06:26:21.777Z,1.00
2019-05-09T06:28:48.860Z,1.00
2019-05-09T06:31:17.899Z,1.13
2019-05-09T06:33:47.227Z,1.07
2019-05-09T06:36:13.544Z,1.00
2019-05-09T06:38:40.638Z,1.10
2019-05-09T06:41:08.852Z,0.87
2019-05-09T06:43:39.397Z,0.80
2019-05-09T06:46:05.366Z,1.00
2019-05-09T06:48:32.466Z,1.30
2019-05-09T06:50:59.536Z,0.83
2019-05-09T06:53:27.280Z,1.27
2019-05-09T06:55:54.370Z,1.30
2019-05-09T06:58:21.520Z,1.00
2019-05-09T07:00:48.959Z,1.43
2019-05-09T07:03:18.356Z,0.90
2019-05-09T07:05:45.133Z,0.87
2019-05-09T07:08:12.201Z,0.80
2019-05-09T07:10:39.295Z,1.10
2019-05-09T07:13:07.958Z,1.20
2019-05-09T07:15:37.535Z,1.20
2019-05-09T07:18:04.204Z,1.07
2019-05-09T07:20:31.291Z,1.20
2019-05-09T07:22:58.529Z,0.80
2019-05-09T07:25:27.613Z,1.23
2019-05-09T07:27:54.460Z,1.23
2019-05-09T07:30:21.619Z,1.00
2019-05-09T07:32:48.857Z,1.53
2019-05-09T07:35:18.414Z,1.20
2019-05-09T07:37:44.824Z,1.07
2019-05-09T07:40:12.863Z,1.17
2019-05-09T07:42:39.986Z,1.10
2019-05-09T07:45:08.925Z,1.27
2019-05-09T07:47:36.027Z,1.20
2019-05-09T07:50:03.204Z,1.20
2019-05-09T07:52:30.322Z,1.57
2019-05-09T07:54:58.142Z,0.90
2019-05-09T07:57:25.358Z,1.10
2019-05-09T07:59:52.453Z,1.37
2019-05-09T08:02:19.568Z,1.10
2019-05-09T08:04:48.872Z,1.03
2019-05-09T08:07:17.563Z,1.23
2019-05-09T08:09:44.388Z,1.00
2019-05-09T08:12:11.598Z,1.00
2019-05-09T08:14:38.762Z,1.00
2019-05-09T08:17:05.848Z,1.50
2019-05-09T08:19:34.772Z,1.03
2019-05-09T08:22:01.875Z,1.20
2019-05-09T08:24:28.977Z,1.00
2019-05-09T08:26:58.010Z,1.03
2019-05-09T08:29:24.838Z,0.80
2019-05-09T08:31:51.980Z,0.90
2019-05-09T08:34:19.089Z,1.23
2019-05-09T08:36:47.726Z,1.00
2019-05-09T08:39:15.186Z,0.90
2019-05-09T08:41:42.299Z,1.10
2019-05-09T08:44:11.777Z,1.27
2019-05-09T08:46:41.835Z,0.83
2019-05-09T08:49:08.906Z,1.10
2019-05-09T08:51:47.340Z,1.00
2019-05-09T08:54:04.820Z,0.90
2019-05-09T08:56:31.881Z,0.93
2019-05-09T08:59:01.914Z,0.90
2019-05-09T09:01:45.926Z,1.20
2019-05-09T09:03:57.592Z,1.07
2019-05-09T09:06:24.877Z,0.90
2019-05-09T09:08:52.008Z,1.63
2019-05-09T09:11:19.110Z,0.70
2019-05-09T09:13:48.119Z,1.07
2019-05-09T09:16:21.447Z,1.70
2019-05-09T09:18:44.099Z,1.63
2019-05-09T09:21:11.205Z,1.10
2019-05-09T09:23:43.889Z,1.20
2019-05-09T09:26:08.129Z,1.60
2019-05-09T09:28:35.449Z,1.07
2019-05-09T09:31:03.098Z,1.27
2019-05-09T09:33:30.203Z,1.40
2019-05-09T09:35:57.986Z,1.00
2019-05-09T09:38:25.262Z,1.30
2019-05-09T09:40:52.371Z,1.30
2019-05-09T09:43:20.410Z,1.23
2019-05-09T09:45:48.192Z,1.10
2019-05-09T09:48:18.024Z,1.20
2019-05-09T09:50:49.088Z,1.10
2019-05-09T09:53:14.145Z,1.40
2019-05-09T09:55:41.263Z,1.10
2019-05-09T09:58:08.498Z,1.20
2019-05-09T10:00:38.099Z,1.10
2019-05-09T10:03:04.599Z,1.10
2019-05-09T10:05:31.670Z,0.80
2019-05-09T10:07:58.788Z,1.40
2019-05-09T10:10:28.592Z,1.50
2019-05-09T10:12:54.726Z,0.80
2019-05-09T10:15:21.819Z,1.30
2019-05-09T10:17:48.920Z,1.30
2019-05-09T10:20:18.166Z,1.43
2019-05-09T10:22:55.343Z,1.07
2019-05-09T10:25:14.078Z,1.40
2019-05-09T10:27:41.382Z,1.10
2019-05-09T10:30:09.080Z,1.60
2019-05-09T10:32:38.369Z,1.03
2019-05-09T10:35:05.268Z,1.20
2019-05-09T10:37:32.399Z,1.13
2019-05-09T10:39:59.578Z,0.77
2019-05-09T10:42:28.610Z,0.97
2019-05-09T10:44:55.508Z,1.20
2019-05-09T10:47:22.623Z,1.23
2019-05-09T10:49:49.717Z,0.83
2019-05-09T10:52:18.269Z,1.00
2019-05-09T10:54:45.482Z,1.37
2019-05-09T10:57:12.641Z,1.20
2019-05-09T10:59:39.701Z,0.90
2019-05-09T11:02:09.573Z,1.03
2019-05-09T11:04:37.965Z,1.00
2019-05-09T11:07:04.381Z,1.10
2019-05-09T11:09:31.485Z,0.90
2019-05-09T11:12:01.041Z,0.90
2019-05-09T11:14:36.179Z,0.80
2019-05-09T11:17:07.708Z,0.60
2019-05-09T11:19:25.051Z,0.77
2019-05-09T11:21:52.147Z,0.80
2019-05-09T11:24:19.320Z,0.80
2019-05-09T11:26:48.137Z,1.00
2019-05-09T11:29:15.376Z,1.13
2019-05-09T11:31:42.464Z,1.10
2019-05-09T11:34:09.665Z,1.40
2019-05-09T11:36:37.923Z,1.20
2019-05-09T11:39:10.274Z,1.10
2019-05-09T11:41:34.208Z,1.40
2019-05-09T11:44:01.378Z,1.30
2019-05-09T11:46:29.002Z,0.90
2019-05-09T11:48:58.457Z,1.10
2019-05-09T11:51:25.223Z,1.00
2019-05-09T11:53:52.336Z,0.90
2019-05-09T11:56:19.450Z,1.10
2019-05-09T11:58:48.077Z,1.50
2019-05-09T12:01:15.325Z,2.10
2019-05-09T12:03:42.424Z,1.10
2019-05-09T12:06:09.542Z,0.70
2019-05-09T12:08:38.742Z,0.87
2019-05-09T12:11:08.153Z,0.73
2019-05-09T12:13:34.249Z,1.10
2019-05-09T12:16:01.549Z,0.90
2019-05-09T12:18:29.267Z,0.80
2019-05-09T12:20:57.629Z,1.30
2019-05-09T12:23:25.981Z,1.00
2019-05-09T12:25:53.067Z,0.83
2019-05-09T12:28:20.146Z,0.80
2019-05-09T12:30:49.004Z,1.00
2019-05-09T12:33:18.644Z,1.13
2019-05-09T12:35:47.600Z,1.10
2019-05-09T12:38:13.760Z,1.17
2019-05-09T12:40:40.856Z,1.00
2019-05-09T12:43:09.117Z,0.80
2019-05-09T12:45:38.737Z,0.77
2019-05-09T12:48:13.871Z,0.60
2019-05-09T12:50:38.699Z,1.00
2019-05-09T12:53:05.718Z,0.80
2019-05-09T12:55:32.776Z,1.03
2019-05-09T12:57:59.972Z,0.70
2019-05-09T13:00:28.431Z,0.80
2019-05-09T13:02:55.654Z,0.70
2019-05-09T13:05:22.756Z,1.07
2019-05-09T13:07:49.839Z,1.13
2019-05-09T13:10:19.417Z,0.80
2019-05-09T13:12:48.388Z,1.40
2019-05-09T13:15:14.613Z,0.97
2019-05-09T13:17:41.785Z,1.00
2019-05-09T13:20:09.004Z,1.00
2019-05-09T13:22:36.197Z,0.90
2019-05-09T13:25:03.331Z,0.70
2019-05-09T13:27:32.185Z,0.90
2019-05-09T13:29:59.716Z,1.77
2019-05-09T13:32:27.968Z,0.83
2019-05-09T13:34:57.642Z,1.13
2019-05-09T13:37:24.133Z,0.90
2019-05-09T13:39:51.222Z,0.97
2019-05-09T13:42:19.619Z,0.77
2019-05-09T13:44:47.606Z,0.93
2019-05-09T13:47:15.173Z,1.50
2019-05-09T13:49:42.290Z,1.37
2019-05-09T13:52:10.112Z,1.00
2019-05-09T13:54:38.228Z,0.93
2019-05-09T13:57:05.600Z,1.70
2019-05-09T13:59:33.460Z,0.80
2019-05-09T14:02:00.583Z,1.20
2019-05-09T14:04:28.600Z,1.10
2019-05-09T14:06:56.012Z,1.00
2019-05-09T14:09:23.166Z,0.90
2019-05-09T14:11:50.321Z,0.73
2019-05-09T14:14:18.060Z,1.47
2019-05-09T14:16:47.664Z,0.80
2019-05-09T14:19:40.590Z,0.83
2019-05-09T14:21:42.944Z,0.90
2019-05-09T14:24:15.358Z,0.90
2019-05-09T14:26:39.181Z,0.87
2019-05-09T14:29:06.381Z,1.00
2019-05-09T14:31:33.461Z,0.90
2019-05-09T14:34:00.571Z,0.97
2019-05-09T14:36:27.869Z,1.10
2019-05-09T14:38:57.801Z,0.90
2019-05-09T14:41:23.975Z,0.80
2019-05-09T14:43:51.042Z,1.13
2019-05-09T14:46:18.318Z,1.23
2019-05-09T14:48:47.999Z,0.87
2019-05-09T14:51:14.571Z,0.80
2019-05-09T14:53:41.708Z,0.80
2019-05-09T14:56:08.946Z,0.80
2019-05-09T14:58:38.575Z,0.80
2019-05-09T15:01:04.872Z,0.70
2019-05-09T15:03:34.336Z,0.70
2019-05-09T15:06:01.391Z,0.90
2019-05-09T15:08:28.524Z,0.70
2019-05-09T15:10:58.041Z,0.80
2019-05-09T15:13:24.525Z,1.10
2019-05-09T15:15:51.675Z,1.10
2019-05-09T15:18:18.736Z,0.90
2019-05-09T15:20:51.254Z,0.67
2019-05-09T15:23:19.632Z,0.80
2019-05-09T15:25:48.016Z,0.93
2019-05-09T15:28:17.422Z,0.60
2019-05-09T15:30:44.278Z,0.87
2019-05-09T15:33:11.344Z,0.73
2019-05-09T15:35:39.239Z,1.10
2019-05-09T15:38:08.590Z,0.80
2019-05-09T15:40:35.241Z,0.80
2019-05-09T15:43:02.362Z,0.80
2019-05-09T15:45:29.482Z,1.00
2019-05-09T15:47:58.360Z,1.00
2019-05-09T15:50:27.688Z,1.13
2019-05-09T15:52:54.450Z,1.03
2019-05-09T15:55:21.492Z,1.43
2019-05-09T15:57:48.719Z,1.00
2019-05-09T16:00:15.772Z,1.13
2019-05-09T16:02:44.666Z,1.20
2019-05-09T16:05:11.745Z,1.10
2019-05-09T16:07:38.922Z,0.80
2019-05-09T16:10:08.410Z,1.10
2019-05-09T16:12:34.917Z,1.20
2019-05-09T16:15:02.078Z,1.50
2019-05-09T16:17:29.157Z,1.17
2019-05-09T16:19:58.157Z,1.13
2019-05-09T16:22:25.311Z,1.20
2019-05-09T16:24:52.584Z,1.10
2019-05-09T16:27:19.910Z,1.30
2019-05-09T16:29:48.603Z,1.30
2019-05-09T16:32:17.780Z,1.17
2019-05-09T16:34:44.875Z,1.20
2019-05-09T16:37:11.991Z,1.00
2019-05-09T16:39:41.373Z,1.03
2019-05-09T16:42:08.712Z,1.17
2019-05-09T16:44:37.810Z,1.40
2019-05-09T16:47:04.682Z,1.20
2019-05-09T16:49:32.465Z,1.00
2019-05-09T16:51:59.893Z,0.87
2019-05-09T16:54:28.341Z,1.03
2019-05-09T16:56:57.466Z,1.17
2019-05-09T16:59:24.523Z,1.30
2019-05-09T17:01:51.610Z,0.83
2019-05-09T17:04:19.402Z,0.80
2019-05-09T17:06:49.380Z,1.10
2019-05-09T17:09:17.995Z,1.03
2019-05-09T17:11:47.980Z,1.00
2019-05-09T17:14:14.553Z,0.90
2019-05-09T17:16:41.699Z,1.00
2019-05-09T17:19:08.807Z,1.10
2019-05-09T17:21:38.820Z,0.80
2019-05-09T17:24:08.116Z,0.73
2019-05-09T17:26:37.746Z,1.20
2019-05-09T17:29:04.077Z,1.00
2019-05-09T17:31:31.147Z,1.20
2019-05-09T17:34:01.749Z,1.00
2019-05-09T17:36:29.069Z,1.00
2019-05-09T17:38:56.324Z,0.90
2019-05-09T17:41:23.488Z,1.00
2019-05-09T17:43:50.581Z,1.00
2019-05-09T17:46:19.181Z,1.13
2019-05-09T17:48:47.923Z,1.03
2019-05-09T17:51:18.651Z,0.90
2019-05-09T17:53:44.108Z,0.70
2019-05-09T17:56:12.815Z,1.00
2019-05-09T17:58:39.903Z,0.90
2019-05-09T18:01:07.908Z,1.00
2019-05-09T18:03:35.241Z,0.87
2019-05-09T18:06:02.336Z,0.80
2019-05-09T18:08:29.424Z,0.77
2019-05-09T18:10:58.349Z,1.10
2019-05-09T18:13:28.633Z,0.93
2019-05-09T18:15:54.274Z,1.33
2019-05-09T18:18:21.339Z,1.10
2019-05-09T18:20:48.439Z,1.23
2019-05-09T18:23:17.478Z,1.73
2019-05-09T18:25:44.324Z,1.20
2019-05-09T18:28:11.388Z,1.03
2019-05-09T18:30:38.965Z,0.83
2019-05-09T18:33:07.561Z,1.23
2019-05-09T18:35:34.981Z,1.30
2019-05-09T18:38:03.321Z,1.23
2019-05-09T18:40:30.408Z,1.33
2019-05-09T18:42:58.367Z,1.50
2019-05-09T18:45:28.067Z,1.47
2019-05-09T18:47:54.492Z,1.23
2019-05-09T18:50:21.636Z,1.93
2019-05-09T18:52:48.753Z,1.53
2019-05-09T18:55:15.848Z,1.50
2019-05-09T18:57:42.910Z,1.60
2019-05-09T19:00:10.004Z,1.70
2019-05-09T19:02:37.107Z,1.50
2019-05-09T19:05:04.272Z,1.60
2019-05-09T19:07:31.375Z,1.67
2019-05-09T19:09:58.582Z,1.80
2019-05-09T19:12:27.273Z,1.97
2019-05-09T19:14:54.432Z,1.53
2019-05-09T19:17:22.482Z,1.97
2019-05-09T19:19:49.522Z,2.30
2019-05-09T19:22:22.380Z,1.97
2019-05-09T19:24:45.512Z,1.90
2019-05-09T19:27:12.697Z,1.70
2019-05-09T19:29:39.848Z,2.03
2019-05-09T19:32:06.955Z,2.43
2019-05-09T19:34:34.046Z,1.93
2019-05-09T19:37:04.226Z,1.60
2019-05-09T19:39:31.445Z,2.03
2019-05-09T19:41:58.554Z,2.07
2019-05-09T19:44:25.661Z,1.60
2019-05-09T19:46:52.727Z,2.30
2019-05-09T19:49:19.841Z,1.67
2019-05-09T19:51:46.907Z,1.73
2019-05-09T19:54:14.014Z,1.77
2019-05-09T19:56:41.079Z,1.73
2019-05-09T19:59:08.662Z,1.87
2019-05-09T20:01:35.914Z,2.20
2019-05-09T20:04:02.992Z,2.47
2019-05-09T20:06:30.390Z,2.27
2019-05-09T20:08:57.573Z,3.30
2019-05-09T20:11:25.021Z,3.10
2019-05-09T20:13:52.190Z,3.67
2019-05-09T20:16:19.831Z,2.90
2019-05-09T20:18:46.927Z,2.80
2019-05-09T20:21:14.041Z,2.80
2019-05-09T20:23:41.428Z,3.50
2019-05-09T20:26:11.404Z,3.40
2019-05-09T20:28:38.495Z,2.40
2019-05-09T20:31:05.609Z,3.10
2019-05-09T20:33:32.854Z,2.43
2019-05-09T20:36:00.020Z,2.93
2019-05-09T20:38:27.100Z,2.27
2019-05-09T20:40:54.201Z,2.87
2019-05-09T20:43:21.288Z,2.87
2019-05-09T20:45:51.573Z,2.63
2019-05-09T20:48:22.081Z,2.17
2019-05-09T20:50:49.216Z,2.30
2019-05-09T20:53:16.308Z,2.40
2019-05-09T20:55:43.563Z,2.13
2019-05-09T20:58:12.341Z,2.27
2019-05-09T21:00:39.493Z,2.30
2019-05-09T21:03:08.149Z,2.80
2019-05-09T21:05:35.737Z,1.60
2019-05-09T21:08:02.887Z,1.83
2019-05-09T21:10:30.056Z,2.20
2019-05-09T21:12:57.211Z,2.13
2019-05-09T21:15:24.695Z,1.90
2019-05-09T21:17:53.482Z,1.90
2019-05-09T21:20:20.581Z,1.90
2019-05-09T21:22:47.701Z,1.40
2019-05-09T21:25:14.767Z,1.80
2019-05-09T21:27:41.862Z,1.70
2019-05-09T21:30:08.924Z,1.83
2019-05-09T21:32:36.112Z,1.70
2019-05-09T21:35:03.340Z,1.70
2019-05-09T21:37:30.429Z,1.77
2019-05-09T21:39:57.501Z,1.30
2019-05-09T21:42:24.589Z,1.47
2019-05-09T21:44:52.025Z,1.93
2019-05-09T21:47:19.850Z,1.60
2019-05-09T21:49:46.953Z,1.20
2019-05-09T21:52:14.210Z,1.80
2019-05-09T21:54:41.335Z,1.30
2019-05-09T21:57:08.455Z,1.63
2019-05-09T21:59:35.581Z,1.43
2019-05-09T22:02:02.677Z,1.10
2019-05-09T22:04:29.763Z,1.40
2019-05-09T22:06:56.837Z,1.57
2019-05-09T22:09:23.921Z,1.30
2019-05-09T22:11:51.028Z,1.17
2019-05-09T22:14:18.079Z,1.20
2019-05-09T22:16:45.171Z,1.37
2019-05-09T22:19:12.319Z,1.47
2019-05-09T22:21:39.431Z,1.10
2019-05-09T22:24:06.514Z,1.40
2019-05-09T22:26:33.660Z,1.30
2019-05-09T22:29:00.940Z,1.30
2019-05-09T22:31:28.066Z,1.20
2019-05-09T22:33:55.192Z,1.10
2019-05-09T22:36:22.362Z,0.97
2019-05-09T22:38:49.471Z,1.43
2019-05-09T22:41:16.534Z,1.30
2019-05-09T22:43:43.607Z,0.90
2019-05-09T22:46:10.703Z,1.10
2019-05-09T22:48:37.839Z,0.87
2019-05-09T22:51:04.930Z,1.20
2019-05-09T22:53:32.016Z,1.23
2019-05-09T22:55:59.255Z,1.30
2019-05-09T22:58:26.359Z,1.00
2019-05-09T23:00:53.440Z,0.90
2019-05-09T23:03:20.531Z,0.87
2019-05-09T23:05:47.648Z,0.70
2019-05-09T23:08:14.711Z,1.00
2019-05-09T23:10:41.811Z,0.70
2019-05-09T23:13:08.873Z,1.27
2019-05-09T23:15:35.958Z,1.00
2019-05-09T23:18:03.021Z,1.07
2019-05-09T23:20:30.159Z,1.00
2019-05-09T23:22:57.514Z,1.10
2019-05-09T23:25:24.729Z,0.80
2019-05-09T23:27:51.785Z,0.90
2019-05-09T23:30:18.939Z,0.93
2019-05-09T23:32:46.089Z,1.00
2019-05-09T23:35:13.294Z,1.00
2019-05-09T23:37:40.373Z,0.80
2019-05-09T23:40:09.710Z,0.93
2019-05-09T23:42:36.813Z,1.23
2019-05-09T23:45:03.989Z,0.70
2019-05-09T23:47:31.110Z,0.77
2019-05-09T23:49:58.253Z,0.80
2019-05-09T23:52:25.484Z,0.83
2019-05-09T23:54:52.585Z,0.60
2019-05-09T23:57:19.654Z,0.90
2019-05-09T23:59:46.774Z,0.80
